Time;durP1;ratioP1;P1;durP2;ratioP2;P2;SDS_P1;SDS_P2;PMS_P1;PMS_P2;Temp;Humidity;BMP_temperature;BMP_pressure;BME280_temperature;BME280_humidity;BME280_pressure;Samples;Min_cycle;Max_cycle;Signal;HPM_P1;HPM_P2
2022/12/08 00:00:36;;;;;;;16.20;14.80;;;;;;;21.26;37.50;94820.78;6284831;27;102836;-69
2022/12/08 00:03:41;;;;;;;16.73;15.23;;;;;;;21.29;37.46;94820.16;6267182;27;103301;-67
2022/12/08 00:10:05;;;;;;;16.37;14.97;;;;;;;21.30;37.45;94834.25;6289274;27;103261;-68
2022/12/08 00:13:28;;;;;;;16.00;14.60;;;;;;;21.27;37.38;94848.97;6278838;27;103352;-68
2022/12/08 00:16:31;;;;;;;15.00;13.70;;;;;;;21.28;37.33;94863.84;6288850;27;103152;-68
2022/12/08 00:19:38;;;;;;;16.00;14.70;;;;;;;21.30;37.37;94860.88;6286777;27;102930;-68
2022/12/08 00:22:41;;;;;;;15.10;13.80;;;;;;;21.28;37.11;94866.50;6288371;27;103279;-68
2022/12/08 00:25:44;;;;;;;15.00;13.80;;;;;;;21.28;37.26;94871.81;6279950;27;103969;-68
2022/12/08 00:28:48;;;;;;;15.23;13.97;;;;;;;21.27;37.29;94870.25;6288719;27;103054;-68
2022/12/08 00:31:51;;;;;;;15.23;13.83;;;;;;;21.26;37.33;94867.91;6289090;27;103206;-69
2022/12/08 00:34:56;;;;;;;15.30;14.00;;;;;;;21.26;37.35;94873.22;6283554;27;103475;-68
2022/12/08 00:37:59;;;;;;;15.13;13.70;;;;;;;21.26;37.29;94868.69;6283145;27;103149;-67
2022/12/08 00:41:03;;;;;;;14.47;13.27;;;;;;;21.26;37.20;94871.34;6289468;27;103256;-67
2022/12/08 00:44:07;;;;;;;13.87;12.53;;;;;;;21.25;37.29;94872.44;6288277;27;103485;-68
2022/12/08 00:47:10;;;;;;;14.57;13.07;;;;;;;21.27;37.36;94882.78;6278033;27;102756;-68
2022/12/08 00:50:14;;;;;;;14.00;12.80;;;;;;;21.26;36.83;94878.53;6287353;27;103104;-67
2022/12/08 00:53:19;;;;;;;13.30;12.20;;;;;;;21.28;37.31;94869.16;6288719;27;104198;-64
2022/12/08 00:56:29;;;;;;;15.47;14.17;;;;;;;21.27;37.32;94880.91;6290225;27;102843;-65
2022/12/08 00:59:37;;;;;;;14.20;12.80;;;;;;;21.33;37.08;94885.00;6275563;27;104421;-65
2022/12/08 01:02:50;;;;;;;13.60;12.40;;;;;;;21.29;36.99;94883.25;6287800;27;103085;-65
2022/12/08 01:06:05;;;;;;;13.90;12.70;;;;;;;21.30;36.91;94890.16;6288514;27;103041;-65
2022/12/08 01:09:12;;;;;;;13.83;12.63;;;;;;;21.25;37.00;94872.44;6284036;27;103066;-66
2022/12/08 01:12:16;;;;;;;13.80;12.70;;;;;;;21.28;36.72;94866.50;6282675;27;103588;-66
2022/12/08 01:15:18;;;;;;;13.00;11.90;;;;;;;21.31;36.86;94871.22;6287302;27;103191;-66
2022/12/08 01:18:22;;;;;;;13.93;12.73;;;;;;;21.31;37.10;94881.06;6287433;27;102990;-64
2022/12/08 01:21:27;;;;;;;14.30;13.10;;;;;;;21.29;36.79;94876.06;6277302;27;104084;-65
2022/12/08 01:24:30;;;;;;;13.70;12.33;;;;;;;21.31;36.85;94884.50;6286831;27;103117;-65
2022/12/08 01:27:33;;;;;;;14.60;13.30;;;;;;;21.33;36.82;94886.88;6287603;27;102783;-66
2022/12/08 01:30:38;;;;;;;13.97;12.73;;;;;;;21.30;36.64;94896.25;6287487;27;103164;-66
2022/12/08 01:33:42;;;;;;;14.30;13.10;;;;;;;21.30;36.52;94885.59;6263976;27;103360;-65
2022/12/08 01:36:46;;;;;;;14.67;13.30;;;;;;;21.31;36.80;94871.22;6287587;27;102710;-65
2022/12/08 01:39:49;;;;;;;14.40;13.10;;;;;;;21.32;36.31;94870.13;6286818;27;104069;-65
2022/12/08 01:42:52;;;;;;;13.83;12.63;;;;;;;21.33;36.77;94860.25;6286685;27;103091;-65
2022/12/08 01:45:55;;;;;;;14.33;13.03;;;;;;;21.31;36.19;94868.53;6278029;27;105763;-66
2022/12/08 01:49:05;;;;;;;14.80;13.40;;;;;;;21.34;36.25;94873.28;6287834;27;103260;-66
2022/12/08 01:52:16;;;;;;;13.93;12.70;;;;;;;21.33;36.49;94862.91;6286961;27;104013;-65
2022/12/08 01:55:22;;;;;;;14.97;13.67;;;;;;;21.25;36.29;94832.50;6282691;27;103041;-64
2022/12/08 01:58:30;;;;;;;15.03;13.73;;;;;;;21.30;36.54;94824.38;6280991;27;103053;-65
2022/12/08 02:01:33;;;;;;;14.50;13.30;;;;;;;21.33;36.59;94837.09;6287141;27;103367;-65
2022/12/08 02:04:36;;;;;;;15.53;14.23;;;;;;;21.30;36.25;94827.06;6286865;27;103350;-68
2022/12/08 02:07:41;;;;;;;13.87;12.57;;;;;;;21.27;36.41;94825.00;6276377;27;103994;-66
2022/12/08 02:10:44;;;;;;;13.90;12.80;;;;;;;21.33;36.40;94830.97;6286520;27;103315;-66
2022/12/08 02:13:50;;;;;;;15.07;13.70;;;;;;;21.33;36.33;94837.09;6285785;27;103205;-66
2022/12/08 02:17:03;;;;;;;14.60;13.40;;;;;;;21.23;36.23;94825.94;6286814;27;103182;-65
2022/12/08 02:20:37;;;;;;;14.20;13.00;;;;;;;21.32;36.44;94835.50;6276404;27;104434;-66
2022/12/08 02:23:51;;;;;;;15.10;13.77;;;;;;;21.32;36.11;94840.84;6258542;27;103549;-66
2022/12/08 02:27:18;;;;;;;15.20;13.70;;;;;;;21.26;36.61;94833.31;6286661;27;103373;-65
2022/12/08 02:30:25;;;;;;;15.37;13.97;;;;;;;21.32;36.07;94838.19;6256959;27;103262;-65
2022/12/08 02:33:55;;;;;;;14.67;13.37;;;;;;;21.31;36.27;94833.16;6285692;27;103225;-65
2022/12/08 02:37:08;;;;;;;14.83;13.53;;;;;;;21.31;36.50;94838.47;6275244;27;103157;-66
2022/12/08 02:40:19;;;;;;;14.27;13.00;;;;;;;21.27;35.97;94848.97;6285683;27;102918;-66
2022/12/08 02:43:32;;;;;;;15.27;13.97;;;;;;;21.27;36.30;94837.53;6267413;27;103141;-65
2022/12/08 02:46:43;;;;;;;14.43;13.23;;;;;;;21.30;36.12;94847.56;6287093;27;103198;-66
2022/12/08 02:49:47;;;;;;;14.03;12.90;;;;;;;21.31;35.90;94846.47;6286637;27;103148;-66
2022/12/08 02:52:51;;;;;;;15.07;13.73;;;;;;;21.32;36.02;94842.72;6280459;27;104066;-65
2022/12/08 02:56:08;;;;;;;14.97;13.67;;;;;;;21.31;36.07;94833.94;6279982;27;104284;-65
2022/12/08 02:59:24;;;;;;;14.73;13.47;;;;;;;21.30;36.18;94837.69;6285971;27;103064;-65
2022/12/08 03:02:49;;;;;;;15.13;13.80;;;;;;;21.30;36.19;94832.38;6286446;27;104064;-66
2022/12/08 03:06:07;;;;;;;16.13;14.73;;;;;;;21.32;35.96;94848.03;6276322;27;107344;-65
2022/12/08 03:09:17;;;;;;;15.43;14.03;;;;;;;21.29;36.07;94841.44;6281297;27;103364;-66
2022/12/08 03:12:26;;;;;;;14.30;13.10;;;;;;;21.31;36.22;94831.28;6285468;27;103071;-66
2022/12/08 03:15:31;;;;;;;15.20;13.90;;;;;;;21.25;35.80;94823.75;6266596;27;104144;-65
2022/12/08 03:18:43;;;;;;;14.73;13.50;;;;;;;21.31;35.64;94827.84;6274522;27;103092;-66
2022/12/08 03:21:51;;;;;;;15.30;13.90;;;;;;;21.31;35.73;94836.59;6285589;27;103115;-65
2022/12/08 03:24:55;;;;;;;15.57;14.17;;;;;;;21.29;35.81;94833.47;6289215;27;104193;-66
2022/12/08 03:28:00;;;;;;;14.73;13.47;;;;;;;21.30;35.61;94834.25;6279645;27;103188;-66
2022/12/08 03:31:07;;;;;;;14.23;13.03;;;;;;;21.31;35.97;94823.31;6290170;27;105798;-66
2022/12/08 03:34:14;;;;;;;15.43;14.03;;;;;;;21.27;35.55;94821.56;6288572;27;103953;-65
2022/12/08 03:37:18;;;;;;;15.47;14.10;;;;;;;21.30;35.75;94829.72;6289825;27;103083;-66
2022/12/08 03:40:21;;;;;;;14.60;13.50;;;;;;;21.31;35.62;94827.84;6278770;27;104130;-66
2022/12/08 03:43:24;;;;;;;14.23;12.93;;;;;;;21.31;35.71;94833.16;6289522;27;103118;-66
2022/12/08 03:46:30;;;;;;;14.70;13.50;;;;;;;21.31;35.92;94835.81;6290479;27;104247;-65
2022/12/08 03:49:31;;;;;;;15.03;13.80;;;;;;;21.31;35.61;94825.19;6289418;27;102675;-67
2022/12/08 03:52:36;;;;;;;15.60;14.20;;;;;;;21.30;35.58;94835.03;6278172;27;104976;-65
2022/12/08 03:55:39;;;;;;;15.23;13.93;;;;;;;21.32;35.70;94842.72;6289893;27;103435;-66
2022/12/08 03:58:43;;;;;;;15.23;13.93;;;;;;;21.31;35.78;94839.28;6286965;27;103249;-65
2022/12/08 04:01:46;;;;;;;15.00;13.70;;;;;;;21.31;35.84;94839.28;6284783;27;103178;-65
2022/12/08 04:04:49;;;;;;;16.07;14.57;;;;;;;21.29;35.84;94835.34;6282665;27;102942;-65
2022/12/08 04:07:57;;;;;;;14.83;13.53;;;;;;;21.19;35.50;94836.41;6287294;27;103104;-67
2022/12/08 04:11:00;;;;;;;14.60;13.30;;;;;;;21.32;35.54;94843.50;6287628;27;105842;-65
2022/12/08 04:14:03;;;;;;;14.13;12.93;;;;;;;21.30;35.81;94853.66;6266634;27;103038;-65
2022/12/08 04:17:06;;;;;;;13.67;12.57;;;;;;;21.31;35.64;94849.13;6288464;27;103469;-65
2022/12/08 04:20:10;;;;;;;13.93;12.70;;;;;;;21.32;35.54;94842.72;6288937;27;103185;-66
2022/12/08 04:23:14;;;;;;;14.50;13.30;;;;;;;21.29;35.68;94848.66;6288524;27;103112;-65
2022/12/08 04:26:17;;;;;;;14.30;13.00;;;;;;;21.26;35.31;94836.75;6276684;27;103478;-66
2022/12/08 04:29:21;;;;;;;14.40;13.07;;;;;;;21.29;35.81;94854.75;6277286;27;103264;-66
2022/12/08 04:32:24;;;;;;;13.80;12.60;;;;;;;21.29;35.73;94844.13;6287995;27;103265;-66
2022/12/08 04:35:28;;;;;;;14.53;13.27;;;;;;;21.29;36.08;94852.09;6288423;27;104090;-67
2022/12/08 04:38:32;;;;;;;14.80;13.40;;;;;;;21.29;35.57;94849.44;6278583;27;103537;-67
2022/12/08 04:41:35;;;;;;;16.40;14.40;;;;;;;21.25;35.94;94856.47;6289235;27;103221;-67
2022/12/08 04:44:38;;;;;;;14.47;13.20;;;;;;;21.25;35.77;94853.81;6289219;27;103902;-68
2022/12/08 04:47:41;;;;;;;17.00;13.53;;;;;;;21.21;35.89;94861.63;6281452;27;103491;-66
2022/12/08 04:50:45;;;;;;;14.80;13.60;;;;;;;21.24;36.24;94854.13;6282029;27;102775;-66
2022/12/08 04:53:50;;;;;;;14.50;13.30;;;;;;;21.21;35.80;94856.28;6285818;27;102863;-69
2022/12/08 04:56:53;;;;;;;14.67;13.00;;;;;;;21.20;35.99;94862.72;6287540;27;104068;-66
2022/12/08 04:59:56;;;;;;;13.80;12.60;;;;;;;21.23;36.23;94861.31;6277800;27;103093;-65
2022/12/08 05:02:59;;;;;;;14.33;13.13;;;;;;;21.29;35.83;94860.09;6286621;27;104218;-67
2022/12/08 05:06:03;;;;;;;14.77;13.27;;;;;;;21.34;36.53;94864.47;6285347;27;103297;-68
2022/12/08 05:09:07;;;;;;;14.47;12.80;;;;;;;21.35;37.17;94869.53;6287250;27;103698;-68
2022/12/08 05:12:10;;;;;;;21.93;13.10;;;;;;;21.37;37.89;94863.91;6275963;27;103128;-67
2022/12/08 05:15:14;;;;;;;14.33;12.93;;;;;;;21.39;37.17;94867.03;6286796;27;103995;-67
2022/12/08 05:18:17;;;;;;;13.83;12.43;;;;;;;21.42;37.78;94875.19;6287220;27;106053;-64
2022/12/08 05:21:20;;;;;;;13.57;12.27;;;;;;;21.36;37.70;94875.63;6287741;27;102879;-65
2022/12/08 05:24:24;;;;;;;13.30;12.03;;;;;;;21.32;37.46;94875.44;6277169;27;103184;-63
2022/12/08 05:27:27;;;;;;;14.00;12.60;;;;;;;21.32;37.21;94878.09;6288770;27;103133;-64
2022/12/08 05:30:30;;;;;;;13.97;12.67;;;;;;;21.29;37.22;94878.72;6288373;27;103470;-65
2022/12/08 05:33:34;;;;;;;13.73;12.27;;;;;;;21.28;37.35;94879.81;6286017;27;104326;-64
2022/12/08 05:36:37;;;;;;;14.43;12.93;;;;;;;21.26;37.29;94884.66;6279308;27;103165;-65
2022/12/08 05:39:41;;;;;;;14.10;12.70;;;;;;;21.24;37.22;94886.03;6285034;27;103140;-65
2022/12/08 05:42:44;;;;;;;14.00;12.70;;;;;;;21.24;37.37;94875.41;6285537;27;103195;-65
2022/12/08 05:45:47;;;;;;;14.37;13.03;;;;;;;21.21;37.01;94903.41;6274889;27;103160;-65
2022/12/08 05:48:50;;;;;;;15.53;14.17;;;;;;;21.25;36.96;94899.03;6284095;27;102969;-65
2022/12/08 05:51:53;;;;;;;16.60;15.17;;;;;;;21.23;37.28;94903.88;6287288;27;103024;-65
2022/12/08 05:54:58;;;;;;;19.47;17.67;;;;;;;21.23;36.75;94901.22;6287285;27;103519;-65
2022/12/08 05:58:01;;;;;;;18.70;16.90;;;;;;;21.24;36.76;94881.50;6276463;27;103196;-65
2022/12/08 06:01:19;;;;;;;17.57;16.00;;;;;;;21.22;36.71;94891.69;6287063;27;103075;-66
2022/12/08 06:04:22;;;;;;;19.13;17.37;;;;;;;21.24;37.01;94894.03;6287351;27;103342;-64
2022/12/08 06:07:25;;;;;;;18.63;17.03;;;;;;;21.23;37.01;94890.59;6286285;27;103281;-65
2022/12/08 06:10:29;;;;;;;20.27;18.37;;;;;;;21.23;36.96;94890.59;6277874;27;103061;-66
2022/12/08 06:13:33;;;;;;;20.60;18.70;;;;;;;21.24;36.79;94892.16;6287211;27;103164;-65
2022/12/08 06:16:36;;;;;;;20.70;18.70;;;;;;;21.22;36.73;94878.38;6286736;27;102809;-64
2022/12/08 06:19:39;;;;;;;19.67;18.00;;;;;;;21.27;36.56;94904.84;6276938;27;103914;-66
2022/12/08 06:22:42;;;;;;;19.73;18.03;;;;;;;21.26;36.90;94908.59;6287158;27;102918;-65
2022/12/08 06:25:46;;;;;;;19.50;17.83;;;;;;;21.27;36.80;94912.84;6287056;27;104182;-64
2022/12/08 06:28:50;;;;;;;21.60;19.80;;;;;;;21.27;37.01;94926.13;6287070;27;103119;-65
2022/12/08 06:31:53;;;;;;;21.50;19.70;;;;;;;21.25;36.84;94908.91;6275887;27;104307;-65
2022/12/08 06:34:56;;;;;;;21.57;19.67;;;;;;;21.29;36.63;94931.94;6287025;27;103026;-65
2022/12/08 06:37:59;;;;;;;21.93;19.90;;;;;;;21.28;36.58;94917.06;6286845;27;102978;-65
2022/12/08 06:41:04;;;;;;;22.70;20.50;;;;;;;21.32;36.81;94931.34;6287186;27;104457;-66
2022/12/08 06:44:08;;;;;;;22.27;20.17;;;;;;;21.34;36.71;94925.69;6276755;27;103464;-66
2022/12/08 06:47:11;;;;;;;22.47;20.50;;;;;;;21.32;36.49;94920.69;6286537;27;102849;-66
2022/12/08 06:50:14;;;;;;;21.73;19.73;;;;;;;21.38;36.53;94916.84;6286642;27;103294;-66
2022/12/08 06:53:18;;;;;;;21.27;19.07;;;;;;;22.77;34.18;94915.50;6281740;27;104752;-66
2022/12/08 06:56:26;;;;;;;21.13;19.27;;;;;;;23.65;32.38;94909.78;6281378;27;103717;-66
2022/12/08 06:59:29;;;;;;;20.47;18.67;;;;;;;24.08;31.72;94916.91;6291324;27;103224;-67
2022/12/08 07:02:33;;;;;;;21.40;19.37;;;;;;;24.25;31.48;94900.00;6290912;27;103141;-67
2022/12/08 07:05:36;;;;;;;21.53;19.63;;;;;;;24.40;31.31;94904.78;6281028;27;103080;-67
2022/12/08 07:08:40;;;;;;;20.67;18.80;;;;;;;24.63;30.86;94913.28;6290866;27;104132;-67
2022/12/08 07:11:44;;;;;;;20.67;18.80;;;;;;;24.62;30.55;94922.44;6291643;27;102997;-67
2022/12/08 07:14:47;;;;;;;20.23;18.33;;;;;;;23.72;32.10;94917.31;6290815;27;103177;-67
2022/12/08 07:17:50;;;;;;;20.70;18.57;;;;;;;22.59;34.34;94908.56;6280452;27;103199;-66
2022/12/08 07:21:04;;;;;;;20.73;19.00;;;;;;;22.27;34.80;94929.16;6290789;27;103356;-66
2022/12/08 07:24:07;;;;;;;18.87;17.23;;;;;;;22.11;35.09;94928.81;6290771;27;103272;-67
2022/12/08 07:27:12;;;;;;;19.30;17.60;;;;;;;21.97;35.40;94933.44;6285747;27;103058;-66
2022/12/08 07:30:15;;;;;;;19.90;18.20;;;;;;;21.83;35.32;94931.97;6284149;27;103029;-66
2022/12/08 07:33:18;;;;;;;20.27;18.53;;;;;;;21.78;35.80;94941.63;6290713;27;103104;-66
2022/12/08 07:36:21;;;;;;;20.27;18.47;;;;;;;21.73;35.91;94949.75;6290337;27;103300;-66
2022/12/08 07:39:25;;;;;;;25.13;22.67;;;;;;;21.72;36.13;94963.38;6280289;27;103160;-67
2022/12/08 07:42:29;;;;;;;25.40;23.10;;;;;;;21.69;36.21;94966.66;6290360;27;102823;-66
2022/12/08 07:45:32;;;;;;;27.67;25.20;;;;;;;21.68;36.46;94967.75;6290047;27;103214;-67
2022/12/08 07:48:35;;;;;;;24.47;22.17;;;;;;;21.67;36.35;94952.84;6290278;27;103047;-67
2022/12/08 07:51:38;;;;;;;28.73;26.23;;;;;;;21.66;36.16;94953.94;6278781;27;103763;-65
2022/12/08 07:54:41;;;;;;;29.17;26.67;;;;;;;21.65;36.10;94952.38;6290118;27;104103;-68
2022/12/08 07:57:46;;;;;;;29.17;26.57;;;;;;;21.64;36.32;94950.78;6289510;27;102769;-66
2022/12/08 08:00:49;;;;;;;30.57;27.53;;;;;;;21.60;36.57;94947.97;6289673;27;103200;-67
2022/12/08 08:03:52;;;;;;;30.80;28.20;;;;;;;21.53;36.41;94942.28;6279498;27;105430;-66
2022/12/08 08:06:55;;;;;;;30.50;27.40;;;;;;;21.57;36.55;94959.22;6289514;27;104167;-66
2022/12/08 08:09:58;;;;;;;29.37;26.80;;;;;;;21.55;36.27;94953.41;6289057;27;104483;-66
2022/12/08 08:13:03;;;;;;;31.70;28.70;;;;;;;21.54;36.71;94962.50;6280728;27;104530;-67
2022/12/08 08:16:08;;;;;;;29.77;27.23;;;;;;;21.52;36.41;94956.69;6288647;27;103322;-67
2022/12/08 08:19:11;;;;;;;30.60;28.00;;;;;;;21.40;36.39;94938.59;6289409;27;102960;-66
2022/12/08 08:22:14;;;;;;;30.40;27.40;;;;;;;21.50;36.22;94954.31;6289280;27;102917;-66
2022/12/08 08:25:19;;;;;;;31.60;28.80;;;;;;;21.43;36.51;94935.31;6279494;27;103096;-66
2022/12/08 08:28:23;;;;;;;30.70;28.00;;;;;;;21.45;36.28;94953.66;6289574;27;103460;-66
2022/12/08 08:31:26;;;;;;;31.63;28.93;;;;;;;21.49;36.46;94966.06;6288870;27;103253;-66
2022/12/08 08:34:29;;;;;;;32.37;29.50;;;;;;;21.55;37.06;94963.28;6288843;27;102963;-67
2022/12/08 08:37:32;;;;;;;30.17;27.37;;;;;;;21.52;36.73;94952.16;6278877;27;103023;-67
2022/12/08 08:40:36;;;;;;;30.73;27.93;;;;;;;21.51;36.51;94955.91;6289288;27;103036;-66
2022/12/08 08:43:40;;;;;;;32.70;29.80;;;;;;;21.52;36.90;94949.50;6288582;27;103159;-65
2022/12/08 08:46:44;;;;;;;30.63;28.00;;;;;;;21.52;36.59;94957.47;6284420;27;103070;-66
2022/12/08 08:49:47;;;;;;;31.00;28.30;;;;;;;21.43;36.72;94938.00;6283777;27;103302;-66
2022/12/08 08:52:50;;;;;;;31.17;28.50;;;;;;;21.51;36.46;94942.59;6288387;27;103012;-65
2022/12/08 08:55:53;;;;;;;29.17;26.67;;;;;;;21.53;36.46;94942.28;6288908;27;103558;-67
2022/12/08 08:58:57;;;;;;;29.80;27.20;;;;;;;21.54;36.55;94943.06;6277775;27;103056;-66
2022/12/08 09:02:00;;;;;;;29.50;27.07;;;;;;;21.54;36.40;94943.06;6288640;27;103073;-66
2022/12/08 09:05:04;;;;;;;30.00;27.20;;;;;;;21.56;36.46;94936.34;6288929;27;106499;-66
2022/12/08 09:08:08;;;;;;;28.90;26.40;;;;;;;21.51;36.67;94937.28;6287722;27;103139;-66
2022/12/08 09:11:11;;;;;;;29.33;26.83;;;;;;;21.61;36.39;94933.56;6278668;27;104075;-66
2022/12/08 09:14:16;;;;;;;30.10;27.60;;;;;;;21.65;36.39;94926.53;6287960;27;103328;-66
2022/12/08 09:17:19;;;;;;;28.30;25.80;;;;;;;21.70;36.50;94926.41;6288834;27;106544;-67
2022/12/08 09:20:22;;;;;;;28.20;25.70;;;;;;;21.73;36.33;94914.34;6283522;27;104635;-66
2022/12/08 09:23:25;;;;;;;27.63;25.13;;;;;;;21.77;36.25;94915.31;6282692;27;105486;-65
2022/12/08 09:26:36;;;;;;;27.27;24.87;;;;;;;21.80;36.02;94909.38;6288060;27;102975;-67
2022/12/08 09:29:41;;;;;;;27.87;25.27;;;;;;;21.84;35.96;94910.34;6287639;27;103044;-66
2022/12/08 09:32:44;;;;;;;26.80;24.40;;;;;;;21.83;36.25;94895.47;6278488;27;103276;-66
2022/12/08 09:35:47;;;;;;;26.03;23.70;;;;;;;21.87;36.08;94898.31;6288305;27;103278;-66
2022/12/08 09:38:52;;;;;;;27.00;24.63;;;;;;;21.86;36.37;94894.09;6288317;27;106091;-66
2022/12/08 09:41:59;;;;;;;25.47;23.27;;;;;;;21.94;36.33;94890.66;6288497;27;103939;-66
2022/12/08 09:45:12;;;;;;;25.10;23.00;;;;;;;21.92;36.08;94882.97;6277123;27;105266;-66
2022/12/08 09:48:19;;;;;;;26.07;23.87;;;;;;;21.95;35.98;94895.66;6287836;27;103141;-67
2022/12/08 09:51:24;;;;;;;26.70;24.40;;;;;;;21.89;36.50;94891.59;6287754;27;103032;-66
2022/12/08 09:54:34;;;;;;;25.80;23.50;;;;;;;21.94;36.08;94896.75;6283197;27;103245;-66
2022/12/08 09:57:37;;;;;;;24.60;22.50;;;;;;;21.97;36.09;94903.34;6281145;27;103266;-66
2022/12/08 10:00:41;;;;;;;25.17;22.97;;;;;;;21.95;35.97;94895.66;6287773;27;103534;-66
2022/12/08 10:03:45;;;;;;;25.80;23.50;;;;;;;21.94;36.46;94888.00;6287260;27;103054;-66
2022/12/08 10:06:59;;;;;;;24.90;22.70;;;;;;;21.92;36.38;94874.19;6276686;27;102949;-66
2022/12/08 10:10:07;;;;;;;24.10;22.03;;;;;;;21.86;36.07;94852.25;6287613;27;102780;-65
2022/12/08 10:13:18;;;;;;;22.20;20.23;;;;;;;21.88;36.15;94855.38;6287402;27;102809;-66
2022/12/08 10:16:31;;;;;;;23.60;21.40;;;;;;;21.85;36.16;94848.00;6287539;27;103163;-67
2022/12/08 10:19:35;;;;;;;23.70;21.73;;;;;;;21.94;36.55;94850.69;6276480;27;103093;-66
2022/12/08 10:22:38;;;;;;;22.93;21.03;;;;;;;21.95;36.46;94857.59;6287009;27;103124;-66
2022/12/08 10:25:48;;;;;;;24.47;22.20;;;;;;;21.94;36.46;94854.13;6287410;27;103300;-66
2022/12/08 10:28:51;;;;;;;22.03;20.13;;;;;;;21.96;36.02;94854.59;6282159;27;103918;-65
2022/12/08 10:31:59;;;;;;;23.00;21.10;;;;;;;21.97;36.26;94850.84;6285351;27;102976;-66
2022/12/08 10:35:06;;;;;;;21.80;20.00;;;;;;;21.95;36.17;94849.59;6291350;27;103010;-66
2022/12/08 10:38:17;;;;;;;22.10;20.10;;;;;;;21.95;36.58;94844.25;6292131;27;104105;-68
2022/12/08 10:41:20;;;;;;;21.63;19.63;;;;;;;21.94;36.51;94854.13;6281491;27;104722;-66
2022/12/08 10:44:23;;;;;;;21.60;19.60;;;;;;;21.95;35.98;94847.72;6291553;27;102877;-65
2022/12/08 10:47:29;;;;;;;20.80;19.10;;;;;;;21.97;36.44;94839.41;6291266;27;102925;-66
2022/12/08 10:50:35;;;;;;;21.20;19.40;;;;;;;21.97;36.26;94821.53;6291324;27;103843;-66
2022/12/08 10:53:46;;;;;;;20.07;18.30;;;;;;;21.97;36.13;94813.56;6280670;27;102927;-67
2022/12/08 10:56:54;;;;;;;20.87;19.17;;;;;;;21.96;36.36;94819.19;6290816;27;103212;-66
2022/12/08 10:59:57;;;;;;;19.80;18.13;;;;;;;21.92;36.24;94813.69;6291246;27;103587;-66
2022/12/08 11:03:04;;;;;;;21.13;19.23;;;;;;;21.97;36.45;94824.22;6284540;27;104179;-66
2022/12/08 11:06:14;;;;;;;20.83;18.97;;;;;;;21.98;36.27;94814.34;6289221;27;102942;-66
2022/12/08 11:09:33;;;;;;;19.60;18.00;;;;;;;21.88;36.48;94802.09;6290891;27;102945;-67
2022/12/08 11:12:36;;;;;;;18.90;17.33;;;;;;;21.91;36.17;94814.81;6290919;27;103996;-66
2022/12/08 11:15:40;;;;;;;20.30;18.50;;;;;;;21.89;36.31;94810.88;6279613;27;103385;-66
2022/12/08 11:18:47;;;;;;;19.27;17.67;;;;;;;21.87;36.33;94807.75;6290460;27;103051;-66
2022/12/08 11:21:50;;;;;;;18.83;17.23;;;;;;;21.77;36.22;94782.13;6290757;27;103404;-67
2022/12/08 11:25:01;;;;;;;20.63;18.93;;;;;;;21.81;36.38;94788.41;6291071;27;103507;-66
2022/12/08 11:28:10;;;;;;;19.10;17.60;;;;;;;21.80;36.89;94774.31;6281267;27;102749;-67
2022/12/08 11:31:22;;;;;;;18.00;16.57;;;;;;;21.73;36.86;94763.34;6290658;27;103197;-66
2022/12/08 11:34:34;;;;;;;18.10;16.60;;;;;;;21.78;36.52;94779.16;6289898;27;103035;-66
2022/12/08 11:37:40;;;;;;;18.23;16.60;;;;;;;21.78;36.92;94773.06;6279104;27;105122;-66
2022/12/08 11:40:44;;;;;;;18.87;17.33;;;;;;;21.77;36.58;94753.63;6290870;27;103066;-66
2022/12/08 11:43:55;;;;;;;18.97;17.37;;;;;;;21.76;36.41;94756.59;6289385;27;103149;-65
2022/12/08 11:47:02;;;;;;;17.00;15.60;;;;;;;21.78;36.90;94770.38;6290097;27;104000;-66
2022/12/08 11:50:20;;;;;;;18.80;17.23;;;;;;;21.79;36.75;94775.41;6279775;27;103185;-66
2022/12/08 11:53:29;;;;;;;17.20;15.70;;;;;;;21.81;36.72;94762.56;6290425;27;102970;-67
2022/12/08 11:56:34;;;;;;;17.60;16.10;;;;;;;21.84;36.35;94755.84;6289996;27;104059;-66
2022/12/08 11:59:43;;;;;;;17.17;15.77;;;;;;;21.85;36.18;94762.78;6284952;27;103067;-65
2022/12/08 12:02:53;;;;;;;17.47;16.07;;;;;;;21.86;36.38;94753.69;6284877;27;102996;-65
2022/12/08 12:06:13;;;;;;;17.07;15.67;;;;;;;21.85;36.17;94744.13;6289486;27;103042;-66
2022/12/08 12:10:05;;;;;;;16.30;14.97;;;;;;;21.83;36.58;94748.94;6289805;27;102809;-67
2022/12/08 12:13:22;;;;;;;16.13;14.73;;;;;;;21.81;36.58;94740.47;6278189;27;103319;-66
2022/12/08 12:16:59;;;;;;;16.87;15.47;;;;;;;21.80;36.38;94744.22;6289542;27;103023;-66
2022/12/08 12:20:12;;;;;;;15.60;14.37;;;;;;;21.78;36.75;94741.09;6285326;27;102993;-66
2022/12/08 12:23:23;;;;;;;15.53;14.23;;;;;;;21.77;36.54;94740.31;6279423;27;103607;-66
2022/12/08 12:26:30;;;;;;;15.27;14.03;;;;;;;21.75;37.00;94753.16;6288923;27;103301;-66
2022/12/08 12:29:36;;;;;;;15.93;14.63;;;;;;;21.74;36.69;94753.47;6288295;27;103462;-67
2022/12/08 12:32:45;;;;;;;16.73;15.43;;;;;;;21.73;36.58;94742.03;6285613;27;103090;-67
2022/12/08 12:39:57;;;;;;;15.40;14.20;;;;;;;21.72;36.75;94731.69;6287157;27;102783;-65
2022/12/08 12:43:24;;;;;;;15.00;13.80;;;;;;;21.61;36.52;94725.06;6287607;27;103567;-67
2022/12/08 12:46:55;;;;;;;14.80;13.50;;;;;;;21.69;36.72;94735.75;6280039;27;104314;-66
2022/12/08 12:50:09;;;;;;;14.60;13.50;;;;;;;21.69;36.81;94729.66;6288607;27;103120;-66
2022/12/08 12:53:47;;;;;;;15.07;13.77;;;;;;;21.68;36.89;94728.09;6289222;27;103096;-67
2022/12/08 12:56:54;;;;;;;13.93;12.83;;;;;;;21.69;36.63;94729.66;6283341;27;103182;-66
2022/12/08 13:00:08;;;;;;;14.70;13.50;;;;;;;21.66;36.57;94727.59;6283314;27;103002;-66
2022/12/08 13:03:14;;;;;;;14.10;13.00;;;;;;;21.67;36.65;94729.16;6288415;27;103086;-66
2022/12/08 13:06:24;;;;;;;14.90;13.60;;;;;;;21.66;36.64;94722.25;6288845;27;103489;-66
2022/12/08 13:09:31;;;;;;;14.40;13.30;;;;;;;21.65;37.00;94718.03;6278166;27;103123;-67
2022/12/08 13:12:36;;;;;;;14.43;13.13;;;;;;;21.66;37.17;94727.59;6288247;27;102659;-67
2022/12/08 13:15:41;;;;;;;13.50;12.40;;;;;;;21.66;37.13;94716.94;6288893;27;104155;-66
2022/12/08 13:18:48;;;;;;;14.00;12.90;;;;;;;21.63;37.05;94718.34;6288332;27;103067;-66
2022/12/08 13:21:52;;;;;;;13.70;12.60;;;;;;;21.62;37.07;94718.66;6279753;27;103531;-66
2022/12/08 13:25:33;;;;;;;13.73;12.63;;;;;;;21.64;36.67;94729.78;6288283;27;102661;-66
2022/12/08 13:29:21;;;;;;;13.37;12.27;;;;;;;21.63;37.17;94712.22;6288055;27;103238;-66
2022/12/08 13:32:59;;;;;;;14.20;13.10;;;;;;;21.62;37.22;94716.78;6277983;27;103838;-67
2022/12/08 13:36:28;;;;;;;12.50;11.50;;;;;;;21.63;37.14;94715.69;6184804;28;102741;-66
2022/12/08 13:39:39;;;;;;;13.40;12.40;;;;;;;21.60;36.66;94710.19;6194779;27;104236;-66
2022/12/08 13:42:47;;;;;;;13.07;12.00;;;;;;;21.63;37.13;94706.91;6279481;27;103930;-66
2022/12/08 13:45:54;;;;;;;12.87;11.87;;;;;;;21.63;36.68;94715.69;6287311;27;103040;-67
2022/12/08 13:49:22;;;;;;;12.73;11.73;;;;;;;21.63;37.21;94726.31;6287661;27;103148;-66
2022/12/08 13:52:52;;;;;;;12.40;11.30;;;;;;;21.62;36.79;94713.31;6288072;27;103038;-67
2022/12/08 13:56:16;;;;;;;12.30;11.30;;;;;;;21.63;37.18;94705.03;6277819;27;103778;-66
2022/12/08 13:59:44;;;;;;;12.47;11.47;;;;;;;21.62;36.68;94713.31;6287877;27;102774;-67
2022/12/08 14:02:50;;;;;;;12.43;11.43;;;;;;;21.58;37.03;94715.84;6287315;27;104578;-66
2022/12/08 14:05:54;;;;;;;12.40;11.30;;;;;;;21.59;37.00;94717.41;6277274;27;104196;-66
2022/12/08 14:09:18;;;;;;;11.63;10.73;;;;;;;21.59;37.12;94714.75;6286721;27;102992;-66
2022/12/08 14:12:24;;;;;;;11.70;10.80;;;;;;;21.60;37.40;94731.50;6287752;27;104012;-66
2022/12/08 14:15:28;;;;;;;12.13;11.03;;;;;;;21.59;37.00;94727.25;6287544;27;103168;-66
2022/12/08 14:18:40;;;;;;;13.43;12.30;;;;;;;21.57;36.86;94708.94;6277555;27;102994;-67